Time;durP1;ratioP1;P1;durP2;ratioP2;P2;SDS_P1;SDS_P2;PMS_P1;PMS_P2;Temp;Humidity;BMP_temperature;BMP_pressure;BME280_temperature;BME280_humidity;BME280_pressure;Samples;Min_cycle;Max_cycle;Signal;HPM_P1;HPM_P2
2022/12/28 07:14:19;;;;;;;18.80;10.08;;;;;;;0.73;100.00;98810.25;1824340;77;21115;-62
2022/12/28 07:16:47;;;;;;;16.93;9.73;;;;;;;0.81;100.00;98813.47;1844340;77;20907;-62
2022/12/28 07:19:14;;;;;;;20.62;11.08;;;;;;;0.89;100.00;98818.52;1854591;77;20951;-65
2022/12/28 07:21:40;;;;;;;15.18;8.63;;;;;;;0.98;100.00;98818.58;1847346;77;21474;-63
2022/12/28 07:24:08;;;;;;;14.95;9.03;;;;;;;1.03;100.00;98828.00;1850739;77;21398;-58
2022/12/28 07:26:36;;;;;;;17.00;8.90;;;;;;;1.11;100.00;98830.89;1822167;78;21785;-64
2022/12/28 07:29:04;;;;;;;16.48;8.75;;;;;;;1.22;100.00;98826.30;1834199;77;20868;-61
2022/12/28 07:31:35;;;;;;;14.93;8.15;;;;;;;1.31;100.00;98821.89;1853989;77;20912;-62
2022/12/28 07:34:02;;;;;;;15.30;8.38;;;;;;;1.38;100.00;98821.84;1852175;77;21497;-66
2022/12/28 07:36:31;;;;;;;13.40;8.30;;;;;;;1.43;100.00;98816.75;1844999;77;21001;-61
2022/12/28 07:38:58;;;;;;;14.03;8.43;;;;;;;1.51;100.00;98815.70;1837549;77;21299;-65
2022/12/28 07:41:28;;;;;;;12.25;8.03;;;;;;;1.53;100.00;98824.21;1838675;77;20907;-62
2022/12/28 07:43:55;;;;;;;13.55;7.33;;;;;;;1.54;99.96;98817.39;1818565;77;20906;-65
2022/12/28 07:46:25;;;;;;;12.45;7.67;;;;;;;1.56;99.55;98814.52;1822646;77;21009;-64
2022/12/28 07:48:59;;;;;;;13.62;7.65;;;;;;;1.56;99.57;98811.88;1840400;77;20963;-62
2022/12/28 07:51:34;;;;;;;17.40;8.10;;;;;;;1.60;99.11;98811.24;1854907;77;21843;-60
2022/12/28 07:54:01;;;;;;;13.28;7.92;;;;;;;1.63;98.48;98819.25;1848965;77;26655;-64
2022/12/28 07:56:29;;;;;;;16.35;7.67;;;;;;;1.67;97.89;98816.51;1850647;77;20962;-65
2022/12/28 07:58:59;;;;;;;14.47;7.80;;;;;;;1.67;98.02;98816.51;1833848;77;21395;-64
2022/12/28 08:01:28;;;;;;;16.45;7.65;;;;;;;1.69;98.03;98817.09;1838105;77;21457;-64
2022/12/28 08:03:59;;;;;;;13.80;7.90;;;;;;;1.71;97.18;98821.15;1852632;77;21106;-63
2022/12/28 08:06:27;;;;;;;12.43;7.40;;;;;;;1.71;97.06;98819.02;1845907;77;20911;-61
2022/12/28 08:08:58;;;;;;;14.63;8.20;;;;;;;1.73;96.66;98823.56;1823390;77;20878;-61
2022/12/28 08:11:29;;;;;;;15.65;8.50;;;;;;;1.73;96.38;98827.52;1814625;78;20890;-64
2022/12/28 08:13:58;;;;;;;16.35;7.83;;;;;;;1.73;96.61;98819.59;1803999;79;20967;-62
2022/12/28 08:16:26;;;;;;;16.70;7.78;;;;;;;1.72;96.14;98823.28;1811855;79;21282;-61
2022/12/28 08:18:53;;;;;;;12.30;7.12;;;;;;;1.72;96.12;98829.88;1810852;78;20950;-64
2022/12/28 08:21:23;;;;;;;12.65;8.15;;;;;;;1.73;96.33;98826.20;1816293;79;20918;-65
2022/12/28 08:23:50;;;;;;;11.57;7.92;;;;;;;1.74;96.00;98837.08;1813904;79;20998;-63
2022/12/28 08:26:25;;;;;;;13.32;8.05;;;;;;;1.69;95.89;98827.66;1815142;79;21071;-66
2022/12/28 08:28:56;;;;;;;13.13;7.55;;;;;;;1.67;95.80;98823.89;1812980;78;21027;-60
2022/12/28 08:31:28;;;;;;;13.38;7.58;;;;;;;1.74;95.67;98814.63;1814753;78;20874;-61
2022/12/28 08:33:56;;;;;;;14.58;7.35;;;;;;;1.85;95.19;98811.29;1812855;78;21483;-69
2022/12/28 08:36:23;;;;;;;14.45;7.75;;;;;;;1.97;95.53;98809.58;1810030;78;21694;-61
2022/12/28 08:38:50;;;;;;;16.02;8.58;;;;;;;2.09;95.03;98803.89;1813012;79;20925;-60
2022/12/28 08:41:20;;;;;;;18.92;8.15;;;;;;;2.16;94.37;98810.44;1815947;79;21822;-64
2022/12/28 08:43:47;;;;;;;11.35;7.20;;;;;;;2.26;94.53;98809.44;1811440;79;20844;-59
2022/12/28 08:46:17;;;;;;;14.73;8.08;;;;;;;2.35;94.14;98820.03;1803949;78;21028;-60
2022/12/28 08:48:44;;;;;;;14.75;8.03;;;;;;;2.42;93.29;98814.98;1813107;78;21021;-65
2022/12/28 08:51:15;;;;;;;15.38;8.30;;;;;;;2.48;93.43;98812.77;1804591;79;21529;-64
2022/12/28 08:53:42;;;;;;;11.95;7.67;;;;;;;2.55;92.76;98811.37;1790916;78;21344;-61
2022/12/28 08:56:16;;;;;;;14.10;8.28;;;;;;;2.61;92.97;98819.27;1807330;78;21140;-65
2022/12/28 08:58:44;;;;;;;15.53;8.48;;;;;;;2.65;92.21;98812.51;1813795;79;20920;-62
2022/12/28 09:01:25;;;;;;;14.10;8.10;;;;;;;2.70;92.40;98813.98;1814177;78;21022;-66
2022/12/28 09:03:54;;;;;;;11.93;7.53;;;;;;;2.80;92.06;98804.22;1782244;80;21502;-65
2022/12/28 09:06:29;;;;;;;12.63;7.58;;;;;;;2.87;91.58;98796.20;1814201;78;21954;-62
2022/12/28 09:08:58;;;;;;;11.48;7.60;;;;;;;2.95;91.15;98798.53;1828045;77;25309;-66
2022/12/28 09:11:24;;;;;;;13.03;7.62;;;;;;;3.05;91.22;98797.50;1833813;78;21508;-59
2022/12/28 09:13:51;;;;;;;12.88;7.72;;;;;;;3.11;90.32;98792.66;1833805;78;21074;-62
2022/12/28 09:16:22;;;;;;;14.47;8.10;;;;;;;3.08;89.64;98790.44;1834084;78;21624;-61
2022/12/28 09:18:55;;;;;;;14.53;8.55;;;;;;;3.11;88.80;98797.95;1833680;78;21216;-65
2022/12/28 09:21:25;;;;;;;12.05;7.53;;;;;;;3.09;88.64;98789.39;1833208;78;20964;-65
2022/12/28 09:23:51;;;;;;;12.13;7.55;;;;;;;3.13;88.57;98790.59;1831897;78;21067;-64
2022/12/28 09:26:20;;;;;;;11.35;6.95;;;;;;;3.22;88.66;98791.89;1833743;78;21106;-65
2022/12/28 09:28:50;;;;;;;15.18;7.08;;;;;;;3.35;88.83;98797.00;1833570;78;20975;-62
2022/12/28 09:31:18;;;;;;;11.43;6.87;;;;;;;3.51;88.14;98788.41;1831907;78;21252;-65
2022/12/28 09:34:03;;;;;;;13.58;7.10;;;;;;;3.63;87.14;98789.27;1833072;78;21035;-63
2022/12/28 09:36:37;;;;;;;15.13;7.08;;;;;;;3.72;86.43;98791.88;1832850;78;21509;-61
2022/12/28 09:39:12;;;;;;;10.70;6.83;;;;;;;3.79;85.99;98788.61;1800589;79;21144;-66
2022/12/28 09:41:49;;;;;;;;;;;;;;;3.89;86.19;98790.70;1804138;79;20987;-63
2022/12/28 09:44:25;;;;;;;;;;;;;;;4.00;85.43;98780.66;1767651;78;21055;-65
2022/12/28 09:47:00;;;;;;;9.70;6.10;;;;;;;4.02;84.83;98783.38;1831531;78;20129;-64
2022/12/28 09:49:47;;;;;;;8.90;5.90;;;;;;;3.93;83.25;98781.28;1801047;79;21022;-55
2022/12/28 09:52:22;;;;;;;12.80;6.30;;;;;;;3.80;83.66;98782.28;1823956;78;21035;-61
2022/12/28 09:54:49;;;;;;;12.85;6.50;;;;;;;3.75;84.00;98776.86;1819440;78;21471;-67
2022/12/28 09:57:17;;;;;;;11.57;6.10;;;;;;;3.70;84.05;98782.02;1823517;78;21224;-62
2022/12/28 09:59:48;;;;;;;10.98;5.55;;;;;;;3.61;84.26;98786.03;1830872;78;20869;-64
2022/12/28 10:02:31;;;;;;;8.70;5.47;;;;;;;3.54;84.19;98778.70;1826236;78;21031;-59
2022/12/28 10:05:00;;;;;;;11.85;5.50;;;;;;;3.45;84.69;98775.58;1820276;78;21006;-67
2022/12/28 10:07:28;;;;;;;12.23;5.42;;;;;;;3.44;85.13;98777.11;1827031;78;21010;-60
2022/12/28 10:09:57;;;;;;;8.43;5.35;;;;;;;3.51;85.41;98769.88;1835285;77;21050;-60
2022/12/28 10:12:44;;;;;;;15.40;6.08;;;;;;;3.56;85.12;98772.66;1840584;77;21000;-59
2022/12/28 10:15:38;;;;;;;9.90;5.50;;;;;;;3.59;84.74;98777.52;1829855;77;21059;-63
2022/12/28 10:18:21;;;;;;;10.13;5.35;;;;;;;3.63;85.36;98776.02;1833139;77;20932;-63
2022/12/28 10:20:48;;;;;;;10.58;5.70;;;;;;;3.66;85.44;98767.63;1830860;77;21581;-57
2022/12/28 10:23:24;;;;;;;10.35;5.62;;;;;;;3.74;85.93;98771.80;1826483;77;22064;-61
2022/12/28 10:25:52;;;;;;;10.82;5.95;;;;;;;3.84;85.45;98770.73;1817716;77;21043;-65
2022/12/28 10:28:20;;;;;;;13.70;5.85;;;;;;;3.90;85.22;98757.36;1813766;77;21512;-61
2022/12/28 10:31:09;;;;;;;12.85;5.70;;;;;;;3.93;84.82;98763.52;1806644;79;21012;-59
2022/12/28 10:33:40;;;;;;;11.00;6.10;;;;;;;3.96;84.38;98752.46;1814052;77;21125;-59
2022/12/28 10:36:12;;;;;;;8.80;5.12;;;;;;;3.97;84.37;98748.78;1808394;77;21670;-62
2022/12/28 10:38:43;;;;;;;8.78;5.05;;;;;;;4.00;84.41;98745.66;1817267;77;21023;-62
2022/12/28 10:41:11;;;;;;;9.35;5.15;;;;;;;4.06;83.95;98748.73;1840949;77;20920;-60
2022/12/28 10:43:41;;;;;;;7.55;4.50;;;;;;;4.07;83.06;98739.72;1840872;77;21047;-58
2022/12/28 10:46:15;;;;;;;10.80;4.75;;;;;;;4.17;82.99;98740.47;1840224;77;21309;-58
2022/12/28 10:48:47;;;;;;;12.13;5.23;;;;;;;4.28;82.47;98738.88;1835037;77;21058;-62
2022/12/28 10:51:17;;;;;;;10.05;4.67;;;;;;;4.38;81.97;98742.54;1812205;77;21051;-53
2022/12/28 10:53:48;;;;;;;10.58;4.90;;;;;;;4.43;81.35;98729.94;1833634;77;20987;-59
2022/12/28 10:56:29;;;;;;;10.43;4.72;;;;;;;4.43;81.69;98733.91;1841431;77;21063;-59
2022/12/28 10:59:24;;;;;;;8.43;4.65;;;;;;;4.48;81.54;98732.67;1841379;77;21197;-65
2022/12/28 11:01:51;;;;;;;11.17;4.77;;;;;;;4.52;80.84;98735.16;1821958;77;21247;-66
2022/12/28 11:04:23;;;;;;;10.25;4.42;;;;;;;4.56;80.50;98737.12;1813226;77;21057;-64
2022/12/28 11:06:59;;;;;;;9.08;4.42;;;;;;;4.67;79.92;98724.84;1819827;77;21001;-59
2022/12/28 11:09:28;;;;;;;7.70;4.20;;;;;;;4.83;79.29;98732.08;1827803;77;20936;-58
2022/12/28 11:12:16;;;;;;;6.05;3.87;;;;;;;4.91;77.39;98733.56;1818701;77;20967;-63
2022/12/28 11:14:43;;;;;;;7.80;4.28;;;;;;;4.99;77.78;98731.36;1826350;77;21106;-65
2022/12/28 11:17:27;;;;;;;6.45;3.77;;;;;;;5.02;75.75;98734.84;1815342;77;21572;-63
2022/12/28 11:20:09;;;;;;;6.37;3.50;;;;;;;5.04;75.21;98732.75;1848089;77;21015;-69
2022/12/28 11:22:36;;;;;;;8.93;3.60;;;;;;;5.00;73.82;98732.95;1787742;79;21031;-73
2022/12/28 11:25:04;;;;;;;7.28;3.58;;;;;;;4.87;74.47;98746.52;1831261;77;21023;-66
2022/12/28 11:27:30;;;;;;;6.80;3.67;;;;;;;4.77;73.86;98733.02;1788244;77;21766;-62
2022/12/28 11:29:57;;;;;;;7.45;3.90;;;;;;;4.67;74.50;98738.93;1838222;77;21062;-65
2022/12/28 11:32:30;;;;;;;6.92;3.70;;;;;;;4.63;74.56;98729.83;1834946;77;21046;-67
2022/12/28 11:34:57;;;;;;;7.95;3.85;;;;;;;4.65;74.65;98733.57;1843258;77;21023;-66
2022/12/28 11:37:24;;;;;;;6.33;3.65;;;;;;;4.69;74.95;98729.39;1812355;77;21426;-67
2022/12/28 11:39:51;;;;;;;7.53;3.75;;;;;;;4.77;74.53;98725.88;1804466;79;21296;-71
2022/12/28 11:42:42;;;;;;;7.80;3.60;;;;;;;4.82;74.52;98725.98;1777416;80;21051;-70
2022/12/28 11:45:15;;;;;;;7.15;3.30;;;;;;;4.92;74.19;98717.41;1815952;77;21082;-67
2022/12/28 11:47:42;;;;;;;8.10;3.85;;;;;;;5.06;73.85;98717.42;1826322;77;21161;-71
2022/12/28 11:50:41;;;;;;;6.40;3.33;;;;;;;5.20;74.04;98713.95;1829718;77;21113;-65
2022/12/28 11:53:36;;;;;;;6.72;3.22;;;;;;;5.25;73.48;98712.72;1824940;77;21217;-67
2022/12/28 11:56:12;;;;;;;5.37;2.72;;;;;;;5.20;72.27;98713.95;1848249;77;21516;-60
2022/12/28 11:58:42;;;;;;;;;;;;;;;5.19;72.09;98706.49;1839807;77;21038;-63
2022/12/28 12:01:35;;;;;;;4.30;2.50;;;;;;;5.23;72.69;98704.19;1816617;77;20181;-61
2022/12/28 12:04:10;;;;;;;4.50;2.72;;;;;;;5.27;72.33;98698.67;1815154;77;21054;-64
2022/12/28 12:06:47;;;;;;;5.90;3.17;;;;;;;5.33;71.17;98703.83;1813634;79;21123;-62
2022/12/28 12:09:30;;;;;;;7.30;3.25;;;;;;;5.40;70.63;98703.16;1826319;77;20935;-67
2022/12/28 12:12:01;;;;;;;8.68;2.75;;;;;;;5.51;70.93;98704.15;1824980;77;20876;-62
2022/12/28 12:14:32;;;;;;;7.47;3.00;;;;;;;5.72;69.81;98695.45;1817514;79;21595;-59
2022/12/28 12:17:26;;;;;;;6.62;2.75;;;;;;;5.82;68.49;98691.61;1819208;79;20986;-61
2022/12/28 12:20:00;;;;;;;6.62;4.00;;;;;;;5.86;67.22;98690.64;1819027;79;21179;-57
2022/12/28 12:22:34;;;;;;;7.58;2.75;;;;;;;5.84;65.96;98691.39;1821222;77;20947;-64
2022/12/28 12:25:30;;;;;;;7.35;2.30;;;;;;;5.76;65.91;98685.95;1819003;79;20908;-66
2022/12/28 12:28:02;;;;;;;4.15;2.35;;;;;;;5.72;65.65;98682.69;1775983;77;20956;-63
2022/12/28 12:30:29;;;;;;;5.95;2.37;;;;;;;5.68;66.30;98686.85;1764777;79;21167;-65
2022/12/28 12:33:00;;;;;;;4.85;2.50;;;;;;;5.68;66.48;98682.34;1827343;77;21221;-63
2022/12/28 12:35:29;;;;;;;5.72;2.60;;;;;;;5.67;65.12;98679.94;1823618;77;20850;-64
2022/12/28 12:47:42;;;;;;;3.95;2.47;;;;;;;5.33;65.25;98678.59;1841698;77;21269;-68
2022/12/28 12:50:20;;;;;;;5.25;2.77;;;;;;;5.26;66.04;98673.95;1825161;77;21453;-67
2022/12/28 12:53:06;;;;;;;4.33;2.85;;;;;;;5.20;66.19;98676.25;1818833;79;21372;-64
2022/12/28 12:55:50;;;;;;;5.87;2.40;;;;;;;5.13;66.05;98674.27;1841242;77;20966;-61
2022/12/28 12:58:30;;;;;;;6.40;2.33;;;;;;;5.04;66.76;98673.02;1828572;77;20950;-65
2022/12/28 13:01:24;;;;;;;4.60;2.80;;;;;;;4.96;67.36;98676.58;1845327;77;21905;-62
2022/12/28 13:03:52;;;;;;;4.50;2.70;;;;;;;4.88;67.14;98681.74;1836449;77;20871;-65
2022/12/28 13:06:22;;;;;;;6.35;4.50;;;;;;;4.78;67.38;98666.42;1824517;77;20955;-64
2022/12/28 13:09:00;;;;;;;5.78;3.60;;;;;;;4.74;67.97;98661.83;1833297;77;21041;-68
2022/12/28 13:11:28;;;;;;;6.08;3.10;;;;;;;4.69;68.66;98660.40;1837117;77;20888;-62
2022/12/28 13:13:56;;;;;;;4.67;2.90;;;;;;;4.63;69.16;98661.36;1823241;77;20907;-60
2022/12/28 13:16:26;;;;;;;4.97;2.50;;;;;;;4.59;69.36;98658.90;1821832;77;20896;-65
2022/12/28 13:18:56;;;;;;;6.62;2.45;;;;;;;4.55;70.08;98657.73;1816385;77;20952;-62
2022/12/28 13:21:25;;;;;;;4.90;2.47;;;;;;;4.52;70.16;98658.23;1810416;79;21020;-63
2022/12/28 13:23:51;;;;;;;5.70;2.50;;;;;;;4.47;70.43;98652.81;1838407;77;20966;-59
2022/12/28 13:26:28;;;;;;;3.50;2.17;;;;;;;4.43;70.84;98649.03;1810324;79;22009;-64
2022/12/28 13:29:01;;;;;;;3.92;2.00;;;;;;;4.39;69.98;98648.67;1810284;79;20976;-60
2022/12/28 13:31:40;;;;;;;4.83;2.02;;;;;;;4.36;69.71;98648.36;1810553;79;21648;-60
2022/12/28 13:34:17;;;;;;;5.25;2.22;;;;;;;4.33;69.03;98648.81;1823720;77;20905;-62
2022/12/28 13:36:57;;;;;;;3.52;2.33;;;;;;;4.29;69.02;98648.46;1803681;77;20932;-62
